sensor_id;sensor_type;location;lat;lon;timestamp;temperature;humidity
22635;DHT22;11484;50.858;4.384;2023-09-19T00:00:56;17.60;99.90
22635;DHT22;11484;50.858;4.384;2023-09-19T00:03:22;17.50;99.90
22635;DHT22;11484;50.858;4.384;2023-09-19T00:05:48;17.40;99.90
22635;DHT22;11484;50.858;4.384;2023-09-19T00:08:16;17.40;99.90
22635;DHT22;11484;50.858;4.384;2023-09-19T00:10:42;17.40;99.90
22635;DHT22;11484;50.858;4.384;2023-09-19T00:13:09;17.40;99.90
22635;DHT22;11484;50.858;4.384;2023-09-19T00:15:41;17.30;99.90
22635;DHT22;11484;50.858;4.384;2023-09-19T00:18:07;17.40;99.90
22635;DHT22;11484;50.858;4.384;2023-09-19T00:20:38;17.50;99.90
22635;DHT22;11484;50.858;4.384;2023-09-19T00:23:05;17.40;99.90
22635;DHT22;11484;50.858;4.384;2023-09-19T00:25:30;17.40;99.90
22635;DHT22;11484;50.858;4.384;2023-09-19T00:27:57;17.40;99.90
22635;DHT22;11484;50.858;4.384;2023-09-19T00:30:23;17.30;99.90
22635;DHT22;11484;50.858;4.384;2023-09-19T00:32:50;17.40;99.90
22635;DHT22;11484;50.858;4.384;2023-09-19T00:35:23;17.40;99.90
22635;DHT22;11484;50.858;4.384;2023-09-19T00:37:56;17.40;99.90
22635;DHT22;11484;50.858;4.384;2023-09-19T00:40:21;17.20;99.90
22635;DHT22;11484;50.858;4.384;2023-09-19T00:42:50;17.30;99.90
22635;DHT22;11484;50.858;4.384;2023-09-19T00:45:17;17.30;99.90
22635;DHT22;11484;50.858;4.384;2023-09-19T00:47:51;17.20;99.90
22635;DHT22;11484;50.858;4.384;2023-09-19T00:50:23;17.30;99.90
22635;DHT22;11484;50.858;4.384;2023-09-19T00:52:54;17.20;99.90
22635;DHT22;11484;50.858;4.384;2023-09-19T00:55:24;17.10;99.90
22635;DHT22;11484;50.858;4.384;2023-09-19T00:57:50;17.10;99.90
22635;DHT22;11484;50.858;4.384;2023-09-19T01:00:16;17.20;99.90
22635;DHT22;11484;50.858;4.384;2023-09-19T01:02:45;17.10;99.90
22635;DHT22;11484;50.858;4.384;2023-09-19T01:05:11;17.20;99.90
22635;DHT22;11484;50.858;4.384;2023-09-19T01:07:38;17.20;99.90
22635;DHT22;11484;50.858;4.384;2023-09-19T01:10:09;17.20;99.90
22635;DHT22;11484;50.858;4.384;2023-09-19T01:12:58;17.20;99.90
22635;DHT22;11484;50.858;4.384;2023-09-19T01:21:15;17.20;99.90
22635;DHT22;11484;50.858;4.384;2023-09-19T01:24:10;17.10;99.90
22635;DHT22;11484;50.858;4.384;2023-09-19T01:27:04;17.10;99.90
22635;DHT22;11484;50.858;4.384;2023-09-19T01:32:03;17.00;99.90
22635;DHT22;11484;50.858;4.384;2023-09-19T01:34:50;17.00;99.90
22635;DHT22;11484;50.858;4.384;2023-09-19T01:37:17;17.00;99.90
22635;DHT22;11484;50.858;4.384;2023-09-19T01:39:53;17.10;99.90
22635;DHT22;11484;50.858;4.384;2023-09-19T01:44:51;17.10;99.90
22635;DHT22;11484;50.858;4.384;2023-09-19T01:47:32;17.10;99.90
22635;DHT22;11484;50.858;4.384;2023-09-19T01:53:09;17.00;99.90
22635;DHT22;11484;50.858;4.384;2023-09-19T01:55:43;17.00;99.90
22635;DHT22;11484;50.858;4.384;2023-09-19T01:58:17;17.00;99.90
22635;DHT22;11484;50.858;4.384;2023-09-19T02:00:48;17.00;99.90
22635;DHT22;11484;50.858;4.384;2023-09-19T02:03:17;17.10;99.90
22635;DHT22;11484;50.858;4.384;2023-09-19T02:05:49;17.10;99.90
22635;DHT22;11484;50.858;4.384;2023-09-19T02:08:19;17.20;99.90
22635;DHT22;11484;50.858;4.384;2023-09-19T02:10:45;17.10;99.90
22635;DHT22;11484;50.858;4.384;2023-09-19T02:13:18;17.00;99.90
22635;DHT22;11484;50.858;4.384;2023-09-19T02:15:45;17.10;99.90
22635;DHT22;11484;50.858;4.384;2023-09-19T02:18:12;17.00;99.90
22635;DHT22;11484;50.858;4.384;2023-09-19T02:20:38;17.00;99.90
22635;DHT22;11484;50.858;4.384;2023-09-19T02:23:05;17.00;99.90
22635;DHT22;11484;50.858;4.384;2023-09-19T02:25:30;17.00;99.90
22635;DHT22;11484;50.858;4.384;2023-09-19T02:27:57;17.10;99.90
22635;DHT22;11484;50.858;4.384;2023-09-19T02:30:24;17.10;99.90
22635;DHT22;11484;50.858;4.384;2023-09-19T02:32:51;17.10;99.90
22635;DHT22;11484;50.858;4.384;2023-09-19T02:35:17;17.10;99.90
22635;DHT22;11484;50.858;4.384;2023-09-19T02:37:47;17.20;99.90
22635;DHT22;11484;50.858;4.384;2023-09-19T02:40:13;17.20;99.90
22635;DHT22;11484;50.858;4.384;2023-09-19T02:42:48;17.30;99.90
22635;DHT22;11484;50.858;4.384;2023-09-19T02:45:18;17.20;99.90
22635;DHT22;11484;50.858;4.384;2023-09-19T02:47:45;17.20;99.90
22635;DHT22;11484;50.858;4.384;2023-09-19T02:50:11;17.20;99.90
22635;DHT22;11484;50.858;4.384;2023-09-19T02:52:38;17.20;99.90
22635;DHT22;11484;50.858;4.384;2023-09-19T02:55:04;17.20;99.90
22635;DHT22;11484;50.858;4.384;2023-09-19T02:57:31;17.20;99.90
22635;DHT22;11484;50.858;4.384;2023-09-19T02:59:58;17.20;99.90
22635;DHT22;11484;50.858;4.384;2023-09-19T03:02:26;17.20;99.90
22635;DHT22;11484;50.858;4.384;2023-09-19T03:04:53;17.30;99.90
22635;DHT22;11484;50.858;4.384;2023-09-19T03:07:19;17.10;99.90
22635;DHT22;11484;50.858;4.384;2023-09-19T03:09:45;17.00;99.90
22635;DHT22;11484;50.858;4.384;2023-09-19T03:12:11;17.10;99.90
22635;DHT22;11484;50.858;4.384;2023-09-19T03:14:37;17.10;99.90
22635;DHT22;11484;50.858;4.384;2023-09-19T03:17:02;17.00;99.90
22635;DHT22;11484;50.858;4.384;2023-09-19T03:19:30;17.00;99.90
22635;DHT22;11484;50.858;4.384;2023-09-19T03:21:58;17.00;99.90
22635;DHT22;11484;50.858;4.384;2023-09-19T03:24:24;17.00;99.90
22635;DHT22;11484;50.858;4.384;2023-09-19T03:26:50;16.90;99.90
22635;DHT22;11484;50.858;4.384;2023-09-19T03:29:16;16.90;99.90
22635;DHT22;11484;50.858;4.384;2023-09-19T03:31:42;16.90;99.90
22635;DHT22;11484;50.858;4.384;2023-09-19T03:34:08;16.80;99.90
22635;DHT22;11484;50.858;4.384;2023-09-19T03:36:34;16.70;99.90
22635;DHT22;11484;50.858;4.384;2023-09-19T03:39:01;16.70;99.90
22635;DHT22;11484;50.858;4.384;2023-09-19T03:41:26;16.70;99.90
22635;DHT22;11484;50.858;4.384;2023-09-19T03:43:52;16.70;99.90
22635;DHT22;11484;50.858;4.384;2023-09-19T03:46:18;16.80;99.90
22635;DHT22;11484;50.858;4.384;2023-09-19T03:48:44;16.70;99.90
22635;DHT22;11484;50.858;4.384;2023-09-19T03:51:09;16.80;99.90
22635;DHT22;11484;50.858;4.384;2023-09-19T03:53:36;16.70;99.90
22635;DHT22;11484;50.858;4.384;2023-09-19T03:56:02;16.70;99.90
22635;DHT22;11484;50.858;4.384;2023-09-19T03:58:28;16.70;99.90
22635;DHT22;11484;50.858;4.384;2023-09-19T04:00:57;16.60;99.90
22635;DHT22;11484;50.858;4.384;2023-09-19T04:03:24;16.60;99.90
22635;DHT22;11484;50.858;4.384;2023-09-19T04:05:54;16.70;99.90
22635;DHT22;11484;50.858;4.384;2023-09-19T04:08:19;16.60;99.90
22635;DHT22;11484;50.858;4.384;2023-09-19T04:10:45;16.50;99.90
22635;DHT22;11484;50.858;4.384;2023-09-19T04:13:11;16.50;99.90
22635;DHT22;11484;50.858;4.384;2023-09-19T04:15:37;16.60;99.90
22635;DHT22;11484;50.858;4.384;2023-09-19T04:18:03;16.50;99.90
22635;DHT22;11484;50.858;4.384;2023-09-19T04:20:29;16.50;99.90
22635;DHT22;11484;50.858;4.384;2023-09-19T04:22:54;16.60;99.90
22635;DHT22;11484;50.858;4.384;2023-09-19T04:25:21;16.50;99.90
22635;DHT22;11484;50.858;4.384;2023-09-19T04:27:46;16.50;99.90
22635;DHT22;11484;50.858;4.384;2023-09-19T04:30:13;16.50;99.90
22635;DHT22;11484;50.858;4.384;2023-09-19T04:32:40;16.50;99.90
22635;DHT22;11484;50.858;4.384;2023-09-19T04:35:10;16.60;99.90
22635;DHT22;11484;50.858;4.384;2023-09-19T04:37:37;16.60;99.90
22635;DHT22;11484;50.858;4.384;2023-09-19T04:40:05;16.50;99.90
22635;DHT22;11484;50.858;4.384;2023-09-19T04:42:31;16.40;99.90
22635;DHT22;11484;50.858;4.384;2023-09-19T04:44:57;16.40;99.90
22635;DHT22;11484;50.858;4.384;2023-09-19T04:47:25;16.30;99.90
22635;DHT22;11484;50.858;4.384;2023-09-19T04:49:51;16.30;99.90
22635;DHT22;11484;50.858;4.384;2023-09-19T04:52:17;16.40;99.90
22635;DHT22;11484;50.858;4.384;2023-09-19T04:54:43;16.40;99.90
22635;DHT22;11484;50.858;4.384;2023-09-19T04:57:08;16.40;99.90
22635;DHT22;11484;50.858;4.384;2023-09-19T04:59:34;16.40;99.90
22635;DHT22;11484;50.858;4.384;2023-09-19T05:02:00;16.40;99.90
22635;DHT22;11484;50.858;4.384;2023-09-19T05:04:25;16.40;99.90
22635;DHT22;11484;50.858;4.384;2023-09-19T05:06:57;16.40;99.90
22635;DHT22;11484;50.858;4.384;2023-09-19T05:09:24;16.40;99.90
22635;DHT22;11484;50.858;4.384;2023-09-19T05:11:50;16.30;99.90
22635;DHT22;11484;50.858;4.384;2023-09-19T05:14:18;16.30;99.90
22635;DHT22;11484;50.858;4.384;2023-09-19T05:16:46;16.30;99.90
22635;DHT22;11484;50.858;4.384;2023-09-19T05:19:12;16.30;99.90
22635;DHT22;11484;50.858;4.384;2023-09-19T05:21:38;16.30;99.90
22635;DHT22;11484;50.858;4.384;2023-09-19T05:24:06;16.30;99.90
22635;DHT22;11484;50.858;4.384;2023-09-19T05:26:32;16.20;99.90
22635;DHT22;11484;50.858;4.384;2023-09-19T05:28:58;16.20;99.90
22635;DHT22;11484;50.858;4.384;2023-09-19T05:31:24;16.20;99.90
22635;DHT22;11484;50.858;4.384;2023-09-19T05:33:51;16.20;99.90
22635;DHT22;11484;50.858;4.384;2023-09-19T05:36:17;16.20;99.90
22635;DHT22;11484;50.858;4.384;2023-09-19T05:38:43;16.30;99.90
22635;DHT22;11484;50.858;4.384;2023-09-19T05:41:10;16.30;99.90
22635;DHT22;11484;50.858;4.384;2023-09-19T05:43:39;16.30;99.90
22635;DHT22;11484;50.858;4.384;2023-09-19T05:46:06;16.30;99.90
22635;DHT22;11484;50.858;4.384;2023-09-19T05:48:33;16.40;99.90
22635;DHT22;11484;50.858;4.384;2023-09-19T05:51:08;16.40;99.90
22635;DHT22;11484;50.858;4.384;2023-09-19T05:53:35;16.40;99.90
22635;DHT22;11484;50.858;4.384;2023-09-19T05:56:00;16.40;99.90
22635;DHT22;11484;50.858;4.384;2023-09-19T05:58:27;16.40;99.90
22635;DHT22;11484;50.858;4.384;2023-09-19T06:00:52;16.40;99.90
22635;DHT22;11484;50.858;4.384;2023-09-19T06:03:18;16.40;99.90
22635;DHT22;11484;50.858;4.384;2023-09-19T06:05:44;16.50;99.90
22635;DHT22;11484;50.858;4.384;2023-09-19T06:08:11;16.50;99.90
22635;DHT22;11484;50.858;4.384;2023-09-19T06:10:37;16.50;99.90
22635;DHT22;11484;50.858;4.384;2023-09-19T06:13:03;16.50;99.90
22635;DHT22;11484;50.858;4.384;2023-09-19T06:15:32;16.60;99.90
22635;DHT22;11484;50.858;4.384;2023-09-19T06:17:59;16.60;99.90
22635;DHT22;11484;50.858;4.384;2023-09-19T06:20:28;16.50;99.90
22635;DHT22;11484;50.858;4.384;2023-09-19T06:22:54;16.50;99.90
22635;DHT22;11484;50.858;4.384;2023-09-19T06:25:20;16.60;99.90
22635;DHT22;11484;50.858;4.384;2023-09-19T06:27:53;16.70;99.90
22635;DHT22;11484;50.858;4.384;2023-09-19T06:30:21;16.80;99.90
22635;DHT22;11484;50.858;4.384;2023-09-19T06:32:55;17.00;99.90
22635;DHT22;11484;50.858;4.384;2023-09-19T06:35:20;17.10;99.90
22635;DHT22;11484;50.858;4.384;2023-09-19T06:37:46;17.10;99.90
22635;DHT22;11484;50.858;4.384;2023-09-19T06:40:14;17.00;99.90
22635;DHT22;11484;50.858;4.384;2023-09-19T06:42:46;16.90;99.90
22635;DHT22;11484;50.858;4.384;2023-09-19T06:45:13;17.00;99.90
22635;DHT22;11484;50.858;4.384;2023-09-19T06:47:46;17.10;99.90
22635;DHT22;11484;50.858;4.384;2023-09-19T06:50:20;17.10;99.90
22635;DHT22;11484;50.858;4.384;2023-09-19T06:52:49;17.20;99.90
22635;DHT22;11484;50.858;4.384;2023-09-19T06:55:16;17.20;99.90
22635;DHT22;11484;50.858;4.384;2023-09-19T06:57:43;17.40;99.90
22635;DHT22;11484;50.858;4.384;2023-09-19T07:00:10;17.50;99.90
22635;DHT22;11484;50.858;4.384;2023-09-19T07:02:44;17.60;99.90
22635;DHT22;11484;50.858;4.384;2023-09-19T07:05:10;17.80;99.90
22635;DHT22;11484;50.858;4.384;2023-09-19T07:07:36;18.00;99.90
22635;DHT22;11484;50.858;4.384;2023-09-19T07:10:02;18.10;99.90
22635;DHT22;11484;50.858;4.384;2023-09-19T07:12:31;18.20;99.90
22635;DHT22;11484;50.858;4.384;2023-09-19T07:14:58;18.30;99.90
22635;DHT22;11484;50.858;4.384;2023-09-19T07:17:23;18.30;99.90
22635;DHT22;11484;50.858;4.384;2023-09-19T07:19:50;18.40;99.90
22635;DHT22;11484;50.858;4.384;2023-09-19T07:22:16;18.60;99.90
22635;DHT22;11484;50.858;4.384;2023-09-19T07:25:00;18.80;99.90
22635;DHT22;11484;50.858;4.384;2023-09-19T07:27:26;19.00;99.90
22635;DHT22;11484;50.858;4.384;2023-09-19T07:29:51;19.30;99.90
22635;DHT22;11484;50.858;4.384;2023-09-19T07:32:17;19.50;99.90
22635;DHT22;11484;50.858;4.384;2023-09-19T07:34:43;19.60;99.90
22635;DHT22;11484;50.858;4.384;2023-09-19T07:37:10;19.80;99.90
22635;DHT22;11484;50.858;4.384;2023-09-19T07:39:36;20.00;99.90
22635;DHT22;11484;50.858;4.384;2023-09-19T07:42:02;20.10;99.90
22635;DHT22;11484;50.858;4.384;2023-09-19T07:44:28;20.20;99.90
22635;DHT22;11484;50.858;4.384;2023-09-19T07:46:53;20.20;99.90
22635;DHT22;11484;50.858;4.384;2023-09-19T07:49:20;20.20;99.90
22635;DHT22;11484;50.858;4.384;2023-09-19T07:51:46;20.10;99.90
22635;DHT22;11484;50.858;4.384;2023-09-19T07:54:12;20.10;99.90
22635;DHT22;11484;50.858;4.384;2023-09-19T07:56:38;20.00;99.90
22635;DHT22;11484;50.858;4.384;2023-09-19T07:59:04;19.80;99.90
22635;DHT22;11484;50.858;4.384;2023-09-19T08:01:29;19.80;99.90
22635;DHT22;11484;50.858;4.384;2023-09-19T08:03:55;19.80;99.90
22635;DHT22;11484;50.858;4.384;2023-09-19T08:06:21;19.80;99.90
22635;DHT22;11484;50.858;4.384;2023-09-19T08:08:50;19.80;99.90
22635;DHT22;11484;50.858;4.384;2023-09-19T08:11:16;19.70;99.90
22635;DHT22;11484;50.858;4.384;2023-09-19T08:13:47;19.50;99.90
22635;DHT22;11484;50.858;4.384;2023-09-19T08:16:15;19.60;99.90
22635;DHT22;11484;50.858;4.384;2023-09-19T08:18:41;19.60;99.90
22635;DHT22;11484;50.858;4.384;2023-09-19T08:21:07;19.70;99.90
22635;DHT22;11484;50.858;4.384;2023-09-19T08:23:38;19.80;99.90
22635;DHT22;11484;50.858;4.384;2023-09-19T08:26:05;19.80;99.90
22635;DHT22;11484;50.858;4.384;2023-09-19T08:28:37;19.90;99.90
22635;DHT22;11484;50.858;4.384;2023-09-19T08:31:07;20.00;99.90
22635;DHT22;11484;50.858;4.384;2023-09-19T08:33:34;20.30;99.90
22635;DHT22;11484;50.858;4.384;2023-09-19T08:36:01;20.40;99.90
22635;DHT22;11484;50.858;4.384;2023-09-19T08:38:31;20.20;99.90
22635;DHT22;11484;50.858;4.384;2023-09-19T08:40:59;20.30;99.90
22635;DHT22;11484;50.858;4.384;2023-09-19T08:43:28;20.50;99.90
22635;DHT22;11484;50.858;4.384;2023-09-19T08:46:02;20.50;99.90
22635;DHT22;11484;50.858;4.384;2023-09-19T08:48:30;20.70;99.90
22635;DHT22;11484;50.858;4.384;2023-09-19T08:52:05;20.90;99.90
22635;DHT22;11484;50.858;4.384;2023-09-19T08:54:03;21.10;99.90
22635;DHT22;11484;50.858;4.384;2023-09-19T08:56:31;21.80;99.90
22635;DHT22;11484;50.858;4.384;2023-09-19T08:59:05;22.20;99.90
22635;DHT22;11484;50.858;4.384;2023-09-19T09:01:34;22.30;99.90
22635;DHT22;11484;50.858;4.384;2023-09-19T09:04:01;22.70;99.90
22635;DHT22;11484;50.858;4.384;2023-09-19T09:06:28;23.00;99.90
22635;DHT22;11484;50.858;4.384;2023-09-19T09:08:54;23.10;99.90
22635;DHT22;11484;50.858;4.384;2023-09-19T09:11:21;23.30;99.20
22635;DHT22;11484;50.858;4.384;2023-09-19T09:13:47;23.10;99.10
22635;DHT22;11484;50.858;4.384;2023-09-19T09:16:14;23.40;98.90
22635;DHT22;11484;50.858;4.384;2023-09-19T09:18:43;23.40;98.20
22635;DHT22;11484;50.858;4.384;2023-09-19T09:21:10;23.20;97.90
22635;DHT22;11484;50.858;4.384;2023-09-19T09:23:36;23.20;98.10
22635;DHT22;11484;50.858;4.384;2023-09-19T09:26:02;23.30;97.80
22635;DHT22;11484;50.858;4.384;2023-09-19T09:28:29;23.50;97.60
22635;DHT22;11484;50.858;4.384;2023-09-19T09:31:00;23.30;97.30
22635;DHT22;11484;50.858;4.384;2023-09-19T09:33:28;23.30;97.30
22635;DHT22;11484;50.858;4.384;2023-09-19T09:35:57;23.20;97.40
22635;DHT22;11484;50.858;4.384;2023-09-19T09:38:25;22.40;98.10
22635;DHT22;11484;50.858;4.384;2023-09-19T09:40:54;22.00;98.60
22635;DHT22;11484;50.858;4.384;2023-09-19T09:43:31;22.10;99.00
22635;DHT22;11484;50.858;4.384;2023-09-19T09:46:15;22.20;98.60
22635;DHT22;11484;50.858;4.384;2023-09-19T09:48:55;22.10;98.90
22635;DHT22;11484;50.858;4.384;2023-09-19T09:52:00;22.10;98.60
22635;DHT22;11484;50.858;4.384;2023-09-19T09:54:29;21.80;98.80
22635;DHT22;11484;50.858;4.384;2023-09-19T09:57:09;21.60;99.20
22635;DHT22;11484;50.858;4.384;2023-09-19T09:59:55;21.50;99.20
22635;DHT22;11484;50.858;4.384;2023-09-19T10:02:29;21.40;99.60
22635;DHT22;11484;50.858;4.384;2023-09-19T10:04:57;21.50;99.60
22635;DHT22;11484;50.858;4.384;2023-09-19T10:07:41;21.60;99.50
22635;DHT22;11484;50.858;4.384;2023-09-19T10:10:13;21.70;99.20
22635;DHT22;11484;50.858;4.384;2023-09-19T10:12:46;21.60;99.40
22635;DHT22;11484;50.858;4.384;2023-09-19T10:15:17;21.50;99.50
22635;DHT22;11484;50.858;4.384;2023-09-19T10:17:46;21.70;99.50
22635;DHT22;11484;50.858;4.384;2023-09-19T10:20:13;21.80;99.60
22635;DHT22;11484;50.858;4.384;2023-09-19T10:23:01;21.80;99.50
22635;DHT22;11484;50.858;4.384;2023-09-19T10:25:29;21.70;99.60
22635;DHT22;11484;50.858;4.384;2023-09-19T10:27:57;21.80;99.70
22635;DHT22;11484;50.858;4.384;2023-09-19T10:30:26;21.70;99.40
22635;DHT22;11484;50.858;4.384;2023-09-19T10:33:03;21.60;99.60
22635;DHT22;11484;50.858;4.384;2023-09-19T10:35:32;21.60;99.70
22635;DHT22;11484;50.858;4.384;2023-09-19T10:38:04;21.60;99.90
22635;DHT22;11484;50.858;4.384;2023-09-19T10:40:33;21.40;99.90
22635;DHT22;11484;50.858;4.384;2023-09-19T10:43:04;21.40;99.90
22635;DHT22;11484;50.858;4.384;2023-09-19T10:45:35;21.30;99.90
22635;DHT22;11484;50.858;4.384;2023-09-19T10:48:02;21.30;99.90
22635;DHT22;11484;50.858;4.384;2023-09-19T10:50:46;21.20;99.90
22635;DHT22;11484;50.858;4.384;2023-09-19T10:53:14;21.30;99.90
22635;DHT22;11484;50.858;4.384;2023-09-19T10:55:52;21.30;99.90
22635;DHT22;11484;50.858;4.384;2023-09-19T10:58:28;21.30;99.90
22635;DHT22;11484;50.858;4.384;2023-09-19T11:01:04;21.30;99.90
22635;DHT22;11484;50.858;4.384;2023-09-19T11:03:38;21.30;99.90
22635;DHT22;11484;50.858;4.384;2023-09-19T11:06:16;21.30;99.90
22635;DHT22;11484;50.858;4.384;2023-09-19T11:08:56;21.40;99.90
22635;DHT22;11484;50.858;4.384;2023-09-19T11:30:44;21.40;99.90
22635;DHT22;11484;50.858;4.384;2023-09-19T11:33:30;21.50;99.90
22635;DHT22;11484;50.858;4.384;2023-09-19T11:36:09;21.70;99.90
22635;DHT22;11484;50.858;4.384;2023-09-19T11:49:28;21.90;99.90
22635;DHT22;11484;50.858;4.384;2023-09-19T11:51:56;21.90;99.90
22635;DHT22;11484;50.858;4.384;2023-09-19T11:54:23;22.00;99.90
22635;DHT22;11484;50.858;4.384;2023-09-19T11:56:54;22.20;99.90
22635;DHT22;11484;50.858;4.384;2023-09-19T11:59:25;22.00;99.90
22635;DHT22;11484;50.858;4.384;2023-09-19T12:04:38;21.80;99.90
22635;DHT22;11484;50.858;4.384;2023-09-19T12:07:08;21.90;99.90
22635;DHT22;11484;50.858;4.384;2023-09-19T12:09:42;22.00;99.90
22635;DHT22;11484;50.858;4.384;2023-09-19T12:12:10;22.10;99.90
22635;DHT22;11484;50.858;4.384;2023-09-19T12:14:50;22.10;99.90
22635;DHT22;11484;50.858;4.384;2023-09-19T12:17:19;22.10;99.90
22635;DHT22;11484;50.858;4.384;2023-09-19T12:19:56;22.10;99.90
22635;DHT22;11484;50.858;4.384;2023-09-19T12:22:22;22.00;99.90
22635;DHT22;11484;50.858;4.384;2023-09-19T12:24:48;22.00;99.90
22635;DHT22;11484;50.858;4.384;2023-09-19T12:27:14;21.80;99.90
22635;DHT22;11484;50.858;4.384;2023-09-19T12:29:45;21.70;99.90
22635;DHT22;11484;50.858;4.384;2023-09-19T12:32:11;21.70;99.90
22635;DHT22;11484;50.858;4.384;2023-09-19T12:34:37;21.80;99.90
22635;DHT22;11484;50.858;4.384;2023-09-19T12:37:16;21.80;99.90
22635;DHT22;11484;50.858;4.384;2023-09-19T12:39:53;21.80;99.90
22635;DHT22;11484;50.858;4.384;2023-09-19T12:42:23;21.80;99.90
22635;DHT22;11484;50.858;4.384;2023-09-19T12:44:51;21.90;99.90
22635;DHT22;11484;50.858;4.384;2023-09-19T12:47:22;22.00;99.90
22635;DHT22;11484;50.858;4.384;2023-09-19T12:50:16;22.10;99.90
22635;DHT22;11484;50.858;4.384;2023-09-19T12:52:52;22.10;99.90
22635;DHT22;11484;50.858;4.384;2023-09-19T12:55:26;22.20;99.90
22635;DHT22;11484;50.858;4.384;2023-09-19T12:58:22;22.20;99.90
22635;DHT22;11484;50.858;4.384;2023-09-19T13:00:47;22.00;99.90
22635;DHT22;11484;50.858;4.384;2023-09-19T13:03:13;22.00;99.90
22635;DHT22;11484;50.858;4.384;2023-09-19T13:05:49;22.00;99.90
22635;DHT22;11484;50.858;4.384;2023-09-19T13:08:24;22.00;99.90
22635;DHT22;11484;50.858;4.384;2023-09-19T13:13:32;22.10;99.90
22635;DHT22;11484;50.858;4.384;2023-09-19T13:15:59;22.30;99.90
22635;DHT22;11484;50.858;4.384;2023-09-19T13:18:27;22.30;99.90
22635;DHT22;11484;50.858;4.384;2023-09-19T13:21:09;22.30;99.90
22635;DHT22;11484;50.858;4.384;2023-09-19T13:24:17;22.30;99.90
22635;DHT22;11484;50.858;4.384;2023-09-19T13:26:42;22.40;99.90
22635;DHT22;11484;50.858;4.384;2023-09-19T13:29:08;22.50;99.90
22635;DHT22;11484;50.858;4.384;2023-09-19T13:31:33;22.50;99.90
22635;DHT22;11484;50.858;4.384;2023-09-19T13:33:59;22.50;99.90
22635;DHT22;11484;50.858;4.384;2023-09-19T13:36:25;22.50;99.70
22635;DHT22;11484;50.858;4.384;2023-09-19T13:38:51;22.60;99.60
22635;DHT22;11484;50.858;4.384;2023-09-19T13:41:18;22.70;99.70
22635;DHT22;11484;50.858;4.384;2023-09-19T13:43:44;22.80;99.40
22635;DHT22;11484;50.858;4.384;2023-09-19T13:46:13;22.80;99.50
22635;DHT22;11484;50.858;4.384;2023-09-19T13:48:41;22.80;99.30
22635;DHT22;11484;50.858;4.384;2023-09-19T13:51:07;22.60;99.60
22635;DHT22;11484;50.858;4.384;2023-09-19T13:53:33;22.40;99.50
22635;DHT22;11484;50.858;4.384;2023-09-19T13:55:59;22.30;99.90
22635;DHT22;11484;50.858;4.384;2023-09-19T13:58:25;22.30;99.90
22635;DHT22;11484;50.858;4.384;2023-09-19T14:00:51;22.30;99.90
22635;DHT22;11484;50.858;4.384;2023-09-19T14:03:20;22.30;99.90
22635;DHT22;11484;50.858;4.384;2023-09-19T14:05:46;22.30;99.90
22635;DHT22;11484;50.858;4.384;2023-09-19T14:08:13;22.30;99.90
22635;DHT22;11484;50.858;4.384;2023-09-19T14:10:39;22.20;99.90
22635;DHT22;11484;50.858;4.384;2023-09-19T14:13:05;22.30;99.90
22635;DHT22;11484;50.858;4.384;2023-09-19T14:15:30;22.40;99.90
22635;DHT22;11484;50.858;4.384;2023-09-19T14:17:58;22.30;99.90
22635;DHT22;11484;50.858;4.384;2023-09-19T14:20:25;22.20;99.90
22635;DHT22;11484;50.858;4.384;2023-09-19T14:22:53;22.30;99.90
22635;DHT22;11484;50.858;4.384;2023-09-19T14:25:18;22.30;99.90
22635;DHT22;11484;50.858;4.384;2023-09-19T14:27:44;22.30;99.90
22635;DHT22;11484;50.858;4.384;2023-09-19T14:30:11;22.30;99.90
22635;DHT22;11484;50.858;4.384;2023-09-19T14:32:38;22.40;99.90
22635;DHT22;11484;50.858;4.384;2023-09-19T14:35:06;22.50;99.90
22635;DHT22;11484;50.858;4.384;2023-09-19T14:37:32;22.60;99.80
22635;DHT22;11484;50.858;4.384;2023-09-19T14:39:57;22.60;99.90
22635;DHT22;11484;50.858;4.384;2023-09-19T14:42:23;22.40;99.60
22635;DHT22;11484;50.858;4.384;2023-09-19T14:44:49;22.30;99.90
22635;DHT22;11484;50.858;4.384;2023-09-19T14:47:15;22.20;99.90
22635;DHT22;11484;50.858;4.384;2023-09-19T14:49:42;22.20;99.90
22635;DHT22;11484;50.858;4.384;2023-09-19T14:52:09;22.30;99.90
22635;DHT22;11484;50.858;4.384;2023-09-19T14:54:35;22.20;99.90
22635;DHT22;11484;50.858;4.384;2023-09-19T14:57:03;22.10;99.90
22635;DHT22;11484;50.858;4.384;2023-09-19T14:59:33;22.00;99.90
22635;DHT22;11484;50.858;4.384;2023-09-19T15:02:03;22.00;99.90
22635;DHT22;11484;50.858;4.384;2023-09-19T15:04:29;21.90;99.90
22635;DHT22;11484;50.858;4.384;2023-09-19T15:06:56;21.90;99.90
22635;DHT22;11484;50.858;4.384;2023-09-19T15:09:24;21.90;99.90
22635;DHT22;11484;50.858;4.384;2023-09-19T15:11:54;21.90;99.90
22635;DHT22;11484;50.858;4.384;2023-09-19T15:14:21;21.90;99.90
22635;DHT22;11484;50.858;4.384;2023-09-19T15:16:48;22.00;99.90
22635;DHT22;11484;50.858;4.384;2023-09-19T15:19:14;21.90;99.90
22635;DHT22;11484;50.858;4.384;2023-09-19T15:21:40;21.90;99.90
22635;DHT22;11484;50.858;4.384;2023-09-19T15:24:06;22.00;99.90
22635;DHT22;11484;50.858;4.384;2023-09-19T15:26:36;21.90;99.90
22635;DHT22;11484;50.858;4.384;2023-09-19T15:29:08;22.00;99.90
22635;DHT22;11484;50.858;4.384;2023-09-19T15:31:35;22.00;99.90
22635;DHT22;11484;50.858;4.384;2023-09-19T15:34:04;21.80;99.90
22635;DHT22;11484;50.858;4.384;2023-09-19T15:36:31;21.70;99.90
22635;DHT22;11484;50.858;4.384;2023-09-19T15:39:02;21.60;99.90
22635;DHT22;11484;50.858;4.384;2023-09-19T15:41:33;21.60;99.90
22635;DHT22;11484;50.858;4.384;2023-09-19T15:44:01;21.70;99.90
22635;DHT22;11484;50.858;4.384;2023-09-19T15:46:29;21.60;99.90
22635;DHT22;11484;50.858;4.384;2023-09-19T15:48:56;21.60;99.90
22635;DHT22;11484;50.858;4.384;2023-09-19T15:51:23;21.50;99.90
22635;DHT22;11484;50.858;4.384;2023-09-19T15:53:51;21.50;99.90
22635;DHT22;11484;50.858;4.384;2023-09-19T15:56:18;21.50;99.90
22635;DHT22;11484;50.858;4.384;2023-09-19T15:58:45;21.50;99.90
22635;DHT22;11484;50.858;4.384;2023-09-19T16:01:17;21.60;99.90
22635;DHT22;11484;50.858;4.384;2023-09-19T16:03:48;21.60;99.90
22635;DHT22;11484;50.858;4.384;2023-09-19T16:06:18;21.40;99.90
22635;DHT22;11484;50.858;4.384;2023-09-19T16:08:50;21.30;99.90
22635;DHT22;11484;50.858;4.384;2023-09-19T16:11:17;21.40;99.90
22635;DHT22;11484;50.858;4.384;2023-09-19T16:13:43;21.30;99.90
22635;DHT22;11484;50.858;4.384;2023-09-19T16:16:14;21.30;99.90
22635;DHT22;11484;50.858;4.384;2023-09-19T16:18:55;21.40;99.90
22635;DHT22;11484;50.858;4.384;2023-09-19T16:21:23;21.40;99.90
22635;DHT22;11484;50.858;4.384;2023-09-19T16:23:51;21.30;99.90
22635;DHT22;11484;50.858;4.384;2023-09-19T16:26:19;21.40;99.90
22635;DHT22;11484;50.858;4.384;2023-09-19T16:28:47;21.30;99.90
22635;DHT22;11484;50.858;4.384;2023-09-19T16:31:13;21.30;99.90